sensor_id;sensor_type;location;lat;lon;timestamp;P1;durP1;ratioP1;P2;durP2;ratioP2
71091;SDS011;58751;50.708;7.134;2023-10-09T00:00:06;13.07;;;10.53;;
71091;SDS011;58751;50.708;7.134;2023-10-09T00:02:33;12.97;;;9.80;;
71091;SDS011;58751;50.708;7.134;2023-10-09T00:04:59;15.57;;;10.60;;
71091;SDS011;58751;50.708;7.134;2023-10-09T00:07:24;14.73;;;11.47;;
71091;SDS011;58751;50.708;7.134;2023-10-09T00:09:49;13.10;;;10.23;;
71091;SDS011;58751;50.708;7.134;2023-10-09T00:12:15;12.10;;;9.70;;
71091;SDS011;58751;50.708;7.134;2023-10-09T00:14:41;13.40;;;9.87;;
71091;SDS011;58751;50.708;7.134;2023-10-09T00:17:07;10.40;;;8.20;;
71091;SDS011;58751;50.708;7.134;2023-10-09T00:19:34;16.13;;;9.83;;
71091;SDS011;58751;50.708;7.134;2023-10-09T00:21:59;12.30;;;9.63;;
71091;SDS011;58751;50.708;7.134;2023-10-09T00:24:25;12.30;;;8.70;;
71091;SDS011;58751;50.708;7.134;2023-10-09T00:26:50;11.03;;;8.53;;
71091;SDS011;58751;50.708;7.134;2023-10-09T00:29:16;11.77;;;9.80;;
71091;SDS011;58751;50.708;7.134;2023-10-09T00:31:41;12.13;;;9.30;;
71091;SDS011;58751;50.708;7.134;2023-10-09T00:34:07;10.00;;;7.97;;
71091;SDS011;58751;50.708;7.134;2023-10-09T00:36:33;13.43;;;9.40;;
71091;SDS011;58751;50.708;7.134;2023-10-09T00:38:59;12.97;;;9.70;;
71091;SDS011;58751;50.708;7.134;2023-10-09T00:41:24;12.17;;;10.80;;
71091;SDS011;58751;50.708;7.134;2023-10-09T00:43:50;12.53;;;9.70;;
71091;SDS011;58751;50.708;7.134;2023-10-09T00:46:16;11.40;;;9.90;;
71091;SDS011;58751;50.708;7.134;2023-10-09T00:48:42;14.93;;;10.90;;
71091;SDS011;58751;50.708;7.134;2023-10-09T00:51:07;12.50;;;9.80;;
71091;SDS011;58751;50.708;7.134;2023-10-09T00:53:34;12.87;;;10.30;;
71091;SDS011;58751;50.708;7.134;2023-10-09T00:56:01;12.20;;;10.37;;
71091;SDS011;58751;50.708;7.134;2023-10-09T00:58:26;15.73;;;10.03;;
71091;SDS011;58751;50.708;7.134;2023-10-09T01:00:52;11.27;;;10.00;;
71091;SDS011;58751;50.708;7.134;2023-10-09T01:03:18;12.27;;;9.87;;
71091;SDS011;58751;50.708;7.134;2023-10-09T01:05:44;13.77;;;9.07;;
71091;SDS011;58751;50.708;7.134;2023-10-09T01:08:10;12.47;;;10.00;;
71091;SDS011;58751;50.708;7.134;2023-10-09T01:10:45;16.83;;;10.70;;
71091;SDS011;58751;50.708;7.134;2023-10-09T01:13:10;19.47;;;10.00;;
71091;SDS011;58751;50.708;7.134;2023-10-09T01:15:36;10.73;;;9.60;;
71091;SDS011;58751;50.708;7.134;2023-10-09T01:18:04;14.53;;;10.10;;
71091;SDS011;58751;50.708;7.134;2023-10-09T01:20:29;16.73;;;9.40;;
71091;SDS011;58751;50.708;7.134;2023-10-09T01:22:55;10.93;;;9.77;;
71091;SDS011;58751;50.708;7.134;2023-10-09T01:25:22;12.13;;;8.83;;
71091;SDS011;58751;50.708;7.134;2023-10-09T01:27:47;16.90;;;9.53;;
71091;SDS011;58751;50.708;7.134;2023-10-09T01:30:13;12.43;;;8.87;;
71091;SDS011;58751;50.708;7.134;2023-10-09T01:32:38;11.03;;;9.33;;
71091;SDS011;58751;50.708;7.134;2023-10-09T01:35:04;10.10;;;8.63;;
71091;SDS011;58751;50.708;7.134;2023-10-09T01:37:29;13.07;;;9.40;;
71091;SDS011;58751;50.708;7.134;2023-10-09T01:39:55;10.70;;;8.87;;
71091;SDS011;58751;50.708;7.134;2023-10-09T01:42:23;11.70;;;9.37;;
71091;SDS011;58751;50.708;7.134;2023-10-09T01:44:48;11.07;;;8.90;;
71091;SDS011;58751;50.708;7.134;2023-10-09T01:47:14;12.50;;;8.90;;
71091;SDS011;58751;50.708;7.134;2023-10-09T01:49:40;10.57;;;8.57;;
71091;SDS011;58751;50.708;7.134;2023-10-09T01:52:05;9.70;;;8.50;;
71091;SDS011;58751;50.708;7.134;2023-10-09T01:54:31;9.87;;;8.87;;
71091;SDS011;58751;50.708;7.134;2023-10-09T01:56:56;12.77;;;8.73;;
71091;SDS011;58751;50.708;7.134;2023-10-09T01:59:23;10.53;;;8.77;;
71091;SDS011;58751;50.708;7.134;2023-10-09T02:01:48;12.97;;;8.47;;
71091;SDS011;58751;50.708;7.134;2023-10-09T02:04:14;13.20;;;8.63;;
71091;SDS011;58751;50.708;7.134;2023-10-09T02:06:39;9.30;;;7.23;;
71091;SDS011;58751;50.708;7.134;2023-10-09T02:09:04;13.33;;;7.20;;
71091;SDS011;58751;50.708;7.134;2023-10-09T02:11:30;10.47;;;8.33;;
71091;SDS011;58751;50.708;7.134;2023-10-09T02:13:55;10.50;;;7.50;;
71091;SDS011;58751;50.708;7.134;2023-10-09T02:16:22;11.20;;;7.33;;
71091;SDS011;58751;50.708;7.134;2023-10-09T02:18:47;11.13;;;7.73;;
71091;SDS011;58751;50.708;7.134;2023-10-09T02:21:13;8.67;;;6.67;;
71091;SDS011;58751;50.708;7.134;2023-10-09T02:23:38;10.20;;;7.20;;
71091;SDS011;58751;50.708;7.134;2023-10-09T02:26:04;10.90;;;8.03;;
71091;SDS011;58751;50.708;7.134;2023-10-09T02:28:30;8.17;;;6.50;;
71091;SDS011;58751;50.708;7.134;2023-10-09T02:30:55;8.60;;;6.10;;
71091;SDS011;58751;50.708;7.134;2023-10-09T02:33:22;9.63;;;7.17;;
71091;SDS011;58751;50.708;7.134;2023-10-09T02:35:47;9.40;;;6.70;;
71091;SDS011;58751;50.708;7.134;2023-10-09T02:38:13;8.83;;;6.97;;
71091;SDS011;58751;50.708;7.134;2023-10-09T02:40:38;7.70;;;6.13;;
71091;SDS011;58751;50.708;7.134;2023-10-09T02:43:04;11.40;;;7.70;;
71091;SDS011;58751;50.708;7.134;2023-10-09T02:45:29;9.43;;;7.43;;
71091;SDS011;58751;50.708;7.134;2023-10-09T02:47:54;9.07;;;7.27;;
71091;SDS011;58751;50.708;7.134;2023-10-09T02:50:21;9.73;;;7.67;;
71091;SDS011;58751;50.708;7.134;2023-10-09T02:52:47;11.07;;;7.33;;
71091;SDS011;58751;50.708;7.134;2023-10-09T02:55:13;8.13;;;7.33;;
71091;SDS011;58751;50.708;7.134;2023-10-09T02:57:38;10.53;;;7.23;;
71091;SDS011;58751;50.708;7.134;2023-10-09T03:00:04;12.40;;;8.03;;
71091;SDS011;58751;50.708;7.134;2023-10-09T03:02:30;10.20;;;7.30;;
71091;SDS011;58751;50.708;7.134;2023-10-09T03:04:55;8.20;;;6.87;;
71091;SDS011;58751;50.708;7.134;2023-10-09T03:07:22;9.13;;;7.70;;
71091;SDS011;58751;50.708;7.134;2023-10-09T03:09:47;11.73;;;9.17;;
71091;SDS011;58751;50.708;7.134;2023-10-09T03:12:13;9.07;;;7.47;;
71091;SDS011;58751;50.708;7.134;2023-10-09T03:14:39;13.20;;;7.73;;
71091;SDS011;58751;50.708;7.134;2023-10-09T03:17:05;9.43;;;7.53;;
71091;SDS011;58751;50.708;7.134;2023-10-09T03:19:31;12.63;;;8.20;;
71091;SDS011;58751;50.708;7.134;2023-10-09T03:21:57;13.17;;;8.43;;
71091;SDS011;58751;50.708;7.134;2023-10-09T03:24:23;8.47;;;7.57;;
71091;SDS011;58751;50.708;7.134;2023-10-09T03:26:49;13.03;;;8.93;;
71091;SDS011;58751;50.708;7.134;2023-10-09T03:29:15;10.00;;;7.63;;
71091;SDS011;58751;50.708;7.134;2023-10-09T03:31:40;12.73;;;8.33;;
71091;SDS011;58751;50.708;7.134;2023-10-09T03:34:06;12.70;;;8.50;;
71091;SDS011;58751;50.708;7.134;2023-10-09T03:36:31;13.20;;;8.70;;
71091;SDS011;58751;50.708;7.134;2023-10-09T03:38:57;13.37;;;8.90;;
71091;SDS011;58751;50.708;7.134;2023-10-09T03:41:24;15.27;;;8.10;;
71091;SDS011;58751;50.708;7.134;2023-10-09T03:43:49;10.60;;;7.77;;
71091;SDS011;58751;50.708;7.134;2023-10-09T03:46:15;11.77;;;7.90;;
71091;SDS011;58751;50.708;7.134;2023-10-09T03:48:40;10.83;;;9.63;;
71091;SDS011;58751;50.708;7.134;2023-10-09T03:51:06;9.63;;;8.00;;
71091;SDS011;58751;50.708;7.134;2023-10-09T03:53:31;10.77;;;8.93;;
71091;SDS011;58751;50.708;7.134;2023-10-09T03:55:57;9.00;;;7.83;;
71091;SDS011;58751;50.708;7.134;2023-10-09T03:58:23;12.87;;;9.03;;
71091;SDS011;58751;50.708;7.134;2023-10-09T04:00:49;8.60;;;7.70;;
71091;SDS011;58751;50.708;7.134;2023-10-09T04:03:14;13.20;;;8.10;;
71091;SDS011;58751;50.708;7.134;2023-10-09T04:05:40;10.27;;;7.97;;
71091;SDS011;58751;50.708;7.134;2023-10-09T04:08:06;11.57;;;8.47;;
71091;SDS011;58751;50.708;7.134;2023-10-09T04:10:31;9.23;;;7.90;;
71091;SDS011;58751;50.708;7.134;2023-10-09T04:12:56;9.03;;;8.00;;
71091;SDS011;58751;50.708;7.134;2023-10-09T04:15:23;14.03;;;8.60;;
71091;SDS011;58751;50.708;7.134;2023-10-09T04:17:49;12.68;;;9.00;;
71091;SDS011;58751;50.708;7.134;2023-10-09T04:20:14;9.53;;;8.20;;
71091;SDS011;58751;50.708;7.134;2023-10-09T04:22:40;8.87;;;7.97;;
71091;SDS011;58751;50.708;7.134;2023-10-09T04:25:06;12.07;;;8.63;;
71091;SDS011;58751;50.708;7.134;2023-10-09T04:27:31;11.20;;;9.20;;
71091;SDS011;58751;50.708;7.134;2023-10-09T04:29:57;10.37;;;8.40;;
71091;SDS011;58751;50.708;7.134;2023-10-09T04:32:24;11.30;;;8.30;;
71091;SDS011;58751;50.708;7.134;2023-10-09T04:34:49;9.30;;;6.83;;
71091;SDS011;58751;50.708;7.134;2023-10-09T04:37:15;10.03;;;7.63;;
71091;SDS011;58751;50.708;7.134;2023-10-09T04:39:40;11.30;;;7.60;;
71091;SDS011;58751;50.708;7.134;2023-10-09T04:42:05;12.53;;;8.10;;
71091;SDS011;58751;50.708;7.134;2023-10-09T04:44:31;10.20;;;7.50;;
71091;SDS011;58751;50.708;7.134;2023-10-09T04:46:56;9.30;;;7.47;;
71091;SDS011;58751;50.708;7.134;2023-10-09T04:49:23;10.20;;;9.03;;
71091;SDS011;58751;50.708;7.134;2023-10-09T04:51:48;9.33;;;7.30;;
71091;SDS011;58751;50.708;7.134;2023-10-09T04:54:14;9.17;;;7.03;;
71091;SDS011;58751;50.708;7.134;2023-10-09T04:56:39;8.90;;;7.17;;
71091;SDS011;58751;50.708;7.134;2023-10-09T04:59:05;9.07;;;6.97;;
71091;SDS011;58751;50.708;7.134;2023-10-09T05:01:31;9.87;;;7.73;;
71091;SDS011;58751;50.708;7.134;2023-10-09T05:03:56;8.43;;;7.60;;
71091;SDS011;58751;50.708;7.134;2023-10-09T05:06:23;14.10;;;8.47;;
71091;SDS011;58751;50.708;7.134;2023-10-09T05:08:48;11.73;;;8.03;;
71091;SDS011;58751;50.708;7.134;2023-10-09T05:11:14;8.73;;;7.73;;
71091;SDS011;58751;50.708;7.134;2023-10-09T05:13:39;8.63;;;7.13;;
71091;SDS011;58751;50.708;7.134;2023-10-09T05:16:05;8.50;;;7.30;;
71091;SDS011;58751;50.708;7.134;2023-10-09T05:18:31;8.70;;;7.57;;
71091;SDS011;58751;50.708;7.134;2023-10-09T05:20:56;7.83;;;6.73;;
71091;SDS011;58751;50.708;7.134;2023-10-09T05:23:25;8.90;;;6.97;;
71091;SDS011;58751;50.708;7.134;2023-10-09T05:25:51;11.73;;;7.25;;
71091;SDS011;58751;50.708;7.134;2023-10-09T05:28:16;8.13;;;6.87;;
71091;SDS011;58751;50.708;7.134;2023-10-09T05:30:41;9.80;;;7.27;;
71091;SDS011;58751;50.708;7.134;2023-10-09T05:33:07;9.13;;;6.33;;
71091;SDS011;58751;50.708;7.134;2023-10-09T05:35:32;14.70;;;8.37;;
71091;SDS011;58751;50.708;7.134;2023-10-09T05:37:58;9.30;;;6.93;;
71091;SDS011;58751;50.708;7.134;2023-10-09T05:40:27;7.80;;;7.00;;
71091;SDS011;58751;50.708;7.134;2023-10-09T05:42:52;10.43;;;7.37;;
71091;SDS011;58751;50.708;7.134;2023-10-09T05:45:18;8.70;;;6.50;;
71091;SDS011;58751;50.708;7.134;2023-10-09T05:47:43;8.67;;;7.03;;
71091;SDS011;58751;50.708;7.134;2023-10-09T05:50:09;6.97;;;6.27;;
71091;SDS011;58751;50.708;7.134;2023-10-09T05:52:34;15.03;;;8.13;;
71091;SDS011;58751;50.708;7.134;2023-10-09T05:55:00;9.20;;;6.17;;
71091;SDS011;58751;50.708;7.134;2023-10-09T05:57:27;7.50;;;6.60;;
71091;SDS011;58751;50.708;7.134;2023-10-09T05:59:52;11.43;;;7.07;;
71091;SDS011;58751;50.708;7.134;2023-10-09T06:02:18;9.73;;;6.60;;
71091;SDS011;58751;50.708;7.134;2023-10-09T06:04:43;9.60;;;8.60;;
71091;SDS011;58751;50.708;7.134;2023-10-09T06:07:09;11.13;;;6.73;;
71091;SDS011;58751;50.708;7.134;2023-10-09T06:09:34;9.13;;;7.30;;
71091;SDS011;58751;50.708;7.134;2023-10-09T06:12:00;10.90;;;6.10;;
71091;SDS011;58751;50.708;7.134;2023-10-09T06:14:27;10.40;;;7.30;;
71091;SDS011;58751;50.708;7.134;2023-10-09T06:16:52;13.07;;;8.37;;
71091;SDS011;58751;50.708;7.134;2023-10-09T06:19:18;8.53;;;7.33;;
71091;SDS011;58751;50.708;7.134;2023-10-09T06:21:43;9.50;;;7.90;;
71091;SDS011;58751;50.708;7.134;2023-10-09T06:24:09;14.27;;;8.57;;
71091;SDS011;58751;50.708;7.134;2023-10-09T06:26:34;8.90;;;7.60;;
71091;SDS011;58751;50.708;7.134;2023-10-09T06:29:00;11.70;;;7.20;;
71091;SDS011;58751;50.708;7.134;2023-10-09T06:31:27;6.83;;;6.00;;
71091;SDS011;58751;50.708;7.134;2023-10-09T06:33:52;8.20;;;6.90;;
71091;SDS011;58751;50.708;7.134;2023-10-09T06:36:18;7.87;;;7.00;;
71091;SDS011;58751;50.708;7.134;2023-10-09T06:38:43;8.70;;;7.30;;
71091;SDS011;58751;50.708;7.134;2023-10-09T06:41:08;8.27;;;6.50;;
71091;SDS011;58751;50.708;7.134;2023-10-09T06:43:34;9.97;;;6.73;;
71091;SDS011;58751;50.708;7.134;2023-10-09T06:45:59;7.23;;;6.50;;
71091;SDS011;58751;50.708;7.134;2023-10-09T06:48:26;7.43;;;6.77;;
71091;SDS011;58751;50.708;7.134;2023-10-09T06:50:52;14.13;;;7.17;;
71091;SDS011;58751;50.708;7.134;2023-10-09T06:53:17;8.20;;;7.40;;
71091;SDS011;58751;50.708;7.134;2023-10-09T06:55:43;8.43;;;7.53;;
71091;SDS011;58751;50.708;7.134;2023-10-09T06:58:08;9.50;;;6.27;;
71091;SDS011;58751;50.708;7.134;2023-10-09T07:00:37;8.73;;;7.10;;
71091;SDS011;58751;50.708;7.134;2023-10-09T07:03:03;10.00;;;7.23;;
71091;SDS011;58751;50.708;7.134;2023-10-09T07:05:30;12.03;;;7.60;;
71091;SDS011;58751;50.708;7.134;2023-10-09T07:07:55;12.93;;;8.63;;
71091;SDS011;58751;50.708;7.134;2023-10-09T07:10:21;9.60;;;7.57;;
71091;SDS011;58751;50.708;7.134;2023-10-09T07:12:47;10.00;;;8.57;;
71091;SDS011;58751;50.708;7.134;2023-10-09T07:15:12;9.50;;;8.10;;
71091;SDS011;58751;50.708;7.134;2023-10-09T07:17:38;12.83;;;8.60;;
71091;SDS011;58751;50.708;7.134;2023-10-09T07:20:03;11.07;;;7.00;;
71091;SDS011;58751;50.708;7.134;2023-10-09T07:22:31;7.73;;;6.93;;
71091;SDS011;58751;50.708;7.134;2023-10-09T07:24:56;10.10;;;7.97;;
71091;SDS011;58751;50.708;7.134;2023-10-09T07:27:22;10.80;;;6.97;;
71091;SDS011;58751;50.708;7.134;2023-10-09T07:29:47;11.33;;;7.23;;
71091;SDS011;58751;50.708;7.134;2023-10-09T07:32:13;11.47;;;7.90;;
71091;SDS011;58751;50.708;7.134;2023-10-09T07:34:38;7.47;;;6.77;;
71091;SDS011;58751;50.708;7.134;2023-10-09T07:37:04;8.07;;;7.27;;
71091;SDS011;58751;50.708;7.134;2023-10-09T07:39:31;10.37;;;7.33;;
71091;SDS011;58751;50.708;7.134;2023-10-09T07:41:57;8.53;;;6.53;;
71091;SDS011;58751;50.708;7.134;2023-10-09T07:44:22;10.17;;;6.87;;
71091;SDS011;58751;50.708;7.134;2023-10-09T07:46:48;12.33;;;7.47;;
71091;SDS011;58751;50.708;7.134;2023-10-09T07:49:13;8.73;;;6.47;;
71091;SDS011;58751;50.708;7.134;2023-10-09T07:51:39;7.67;;;6.80;;
71091;SDS011;58751;50.708;7.134;2023-10-09T07:54:05;9.53;;;6.97;;
71091;SDS011;58751;50.708;7.134;2023-10-09T07:56:32;9.17;;;6.07;;
71091;SDS011;58751;50.708;7.134;2023-10-09T07:58:57;7.70;;;6.57;;
71091;SDS011;58751;50.708;7.134;2023-10-09T08:01:23;11.93;;;6.63;;
71091;SDS011;58751;50.708;7.134;2023-10-09T08:03:48;8.97;;;7.17;;
71091;SDS011;58751;50.708;7.134;2023-10-09T08:06:17;9.30;;;6.70;;
71091;SDS011;58751;50.708;7.134;2023-10-09T08:08:43;11.47;;;7.60;;
71091;SDS011;58751;50.708;7.134;2023-10-09T08:11:08;8.63;;;7.40;;
71091;SDS011;58751;50.708;7.134;2023-10-09T08:13:35;7.77;;;6.97;;
71091;SDS011;58751;50.708;7.134;2023-10-09T08:16:00;9.40;;;6.57;;
71091;SDS011;58751;50.708;7.134;2023-10-09T08:18:26;11.13;;;6.90;;
71091;SDS011;58751;50.708;7.134;2023-10-09T08:20:51;7.67;;;6.43;;
71091;SDS011;58751;50.708;7.134;2023-10-09T08:23:16;11.20;;;7.90;;
71091;SDS011;58751;50.708;7.134;2023-10-09T08:25:42;7.70;;;6.87;;
71091;SDS011;58751;50.708;7.134;2023-10-09T08:28:07;7.77;;;5.80;;
71091;SDS011;58751;50.708;7.134;2023-10-09T08:30:34;7.20;;;6.10;;
71091;SDS011;58751;50.708;7.134;2023-10-09T08:33:00;7.77;;;6.97;;
71091;SDS011;58751;50.708;7.134;2023-10-09T08:35:25;8.60;;;6.50;;
71091;SDS011;58751;50.708;7.134;2023-10-09T08:37:50;9.00;;;6.90;;
71091;SDS011;58751;50.708;7.134;2023-10-09T08:40:16;8.27;;;6.53;;
71091;SDS011;58751;50.708;7.134;2023-10-09T08:42:42;8.30;;;7.20;;
71091;SDS011;58751;50.708;7.134;2023-10-09T08:45:08;7.20;;;6.10;;
71091;SDS011;58751;50.708;7.134;2023-10-09T08:47:37;9.47;;;6.33;;
71091;SDS011;58751;50.708;7.134;2023-10-09T08:50:02;9.83;;;6.43;;
71091;SDS011;58751;50.708;7.134;2023-10-09T08:52:28;7.77;;;6.50;;
71091;SDS011;58751;50.708;7.134;2023-10-09T08:54:54;9.00;;;6.93;;
71091;SDS011;58751;50.708;7.134;2023-10-09T08:57:19;11.73;;;7.43;;
71091;SDS011;58751;50.708;7.134;2023-10-09T08:59:44;8.60;;;6.03;;
71091;SDS011;58751;50.708;7.134;2023-10-09T09:02:10;8.23;;;7.40;;
71091;SDS011;58751;50.708;7.134;2023-10-09T09:04:37;7.53;;;6.23;;
71091;SDS011;58751;50.708;7.134;2023-10-09T09:07:04;7.13;;;6.00;;
71091;SDS011;58751;50.708;7.134;2023-10-09T09:09:30;9.07;;;7.10;;
71091;SDS011;58751;50.708;7.134;2023-10-09T09:11:56;7.10;;;6.07;;
71091;SDS011;58751;50.708;7.134;2023-10-09T09:14:21;7.53;;;6.67;;
71091;SDS011;58751;50.708;7.134;2023-10-09T09:17:00;10.50;;;6.30;;
71091;SDS011;58751;50.708;7.134;2023-10-09T09:19:30;8.57;;;6.30;;
71091;SDS011;58751;50.708;7.134;2023-10-09T09:21:57;7.80;;;6.70;;
71091;SDS011;58751;50.708;7.134;2023-10-09T09:24:23;6.30;;;5.80;;
71091;SDS011;58751;50.708;7.134;2023-10-09T09:26:48;9.67;;;6.97;;
71091;SDS011;58751;50.708;7.134;2023-10-09T09:29:15;7.83;;;6.37;;
71091;SDS011;58751;50.708;7.134;2023-10-09T09:31:51;7.17;;;5.90;;
71091;SDS011;58751;50.708;7.134;2023-10-09T09:34:17;6.80;;;6.17;;
71091;SDS011;58751;50.708;7.134;2023-10-09T09:36:52;9.70;;;6.77;;
71091;SDS011;58751;50.708;7.134;2023-10-09T09:39:22;9.70;;;6.03;;
71091;SDS011;58751;50.708;7.134;2023-10-09T09:41:48;10.07;;;7.00;;
71091;SDS011;58751;50.708;7.134;2023-10-09T09:44:13;10.70;;;5.93;;
71091;SDS011;58751;50.708;7.134;2023-10-09T09:46:39;8.90;;;6.30;;
71091;SDS011;58751;50.708;7.134;2023-10-09T09:49:04;11.70;;;6.80;;
71091;SDS011;58751;50.708;7.134;2023-10-09T09:51:30;6.23;;;5.63;;
71091;SDS011;58751;50.708;7.134;2023-10-09T09:53:56;8.50;;;6.60;;
71091;SDS011;58751;50.708;7.134;2023-10-09T09:56:23;11.30;;;9.50;;
71091;SDS011;58751;50.708;7.134;2023-10-09T09:58:50;8.63;;;7.67;;
71091;SDS011;58751;50.708;7.134;2023-10-09T10:01:15;7.67;;;5.60;;
71091;SDS011;58751;50.708;7.134;2023-10-09T10:03:42;6.17;;;4.73;;
71091;SDS011;58751;50.708;7.134;2023-10-09T10:06:09;7.00;;;5.27;;
71091;SDS011;58751;50.708;7.134;2023-10-09T10:08:35;6.67;;;5.13;;
71091;SDS011;58751;50.708;7.134;2023-10-09T10:11:01;6.63;;;5.07;;
71091;SDS011;58751;50.708;7.134;2023-10-09T10:16:21;5.83;;;5.13;;
71091;SDS011;58751;50.708;7.134;2023-10-09T10:18:53;8.17;;;6.27;;
71091;SDS011;58751;50.708;7.134;2023-10-09T10:21:19;7.33;;;5.60;;
71091;SDS011;58751;50.708;7.134;2023-10-09T10:23:44;6.67;;;5.53;;
71091;SDS011;58751;50.708;7.134;2023-10-09T10:26:17;9.00;;;5.30;;
71091;SDS011;58751;50.708;7.134;2023-10-09T10:28:43;9.00;;;5.60;;
71091;SDS011;58751;50.708;7.134;2023-10-09T10:31:10;8.43;;;5.60;;
71091;SDS011;58751;50.708;7.134;2023-10-09T10:36:29;7.53;;;5.00;;
71091;SDS011;58751;50.708;7.134;2023-10-09T10:38:59;8.37;;;5.30;;
71091;SDS011;58751;50.708;7.134;2023-10-09T10:41:24;4.60;;;4.20;;
71091;SDS011;58751;50.708;7.134;2023-10-09T10:43:50;7.17;;;4.90;;
71091;SDS011;58751;50.708;7.134;2023-10-09T10:46:17;6.50;;;5.20;;
71091;SDS011;58751;50.708;7.134;2023-10-09T10:48:43;5.57;;;5.00;;
71091;SDS011;58751;50.708;7.134;2023-10-09T10:51:08;7.40;;;5.03;;
71091;SDS011;58751;50.708;7.134;2023-10-09T10:53:34;5.77;;;4.93;;
71091;SDS011;58751;50.708;7.134;2023-10-09T10:55:59;5.93;;;4.33;;
71091;SDS011;58751;50.708;7.134;2023-10-09T10:58:25;6.03;;;5.00;;
71091;SDS011;58751;50.708;7.134;2023-10-09T11:00:51;4.90;;;4.50;;
71091;SDS011;58751;50.708;7.134;2023-10-09T11:03:19;7.07;;;5.13;;
71091;SDS011;58751;50.708;7.134;2023-10-09T11:05:45;5.73;;;5.10;;
71091;SDS011;58751;50.708;7.134;2023-10-09T11:08:11;5.70;;;5.00;;
71091;SDS011;58751;50.708;7.134;2023-10-09T11:10:36;8.87;;;4.87;;
71091;SDS011;58751;50.708;7.134;2023-10-09T11:13:02;8.50;;;5.30;;
71091;SDS011;58751;50.708;7.134;2023-10-09T11:15:31;5.97;;;5.00;;
71091;SDS011;58751;50.708;7.134;2023-10-09T11:17:58;7.30;;;5.10;;
71091;SDS011;58751;50.708;7.134;2023-10-09T11:20:25;5.50;;;4.67;;
71091;SDS011;58751;50.708;7.134;2023-10-09T11:22:51;6.73;;;6.03;;
71091;SDS011;58751;50.708;7.134;2023-10-09T11:25:17;4.87;;;4.40;;
71091;SDS011;58751;50.708;7.134;2023-10-09T11:27:42;5.20;;;4.70;;
71091;SDS011;58751;50.708;7.134;2023-10-09T11:30:09;5.53;;;5.03;;
71091;SDS011;58751;50.708;7.134;2023-10-09T11:32:35;8.60;;;7.10;;
71091;SDS011;58751;50.708;7.134;2023-10-09T11:35:10;6.77;;;4.70;;
71091;SDS011;58751;50.708;7.134;2023-10-09T11:37:38;5.80;;;5.20;;
71091;SDS011;58751;50.708;7.134;2023-10-09T11:40:04;5.80;;;5.30;;
71091;SDS011;58751;50.708;7.134;2023-10-09T11:42:30;7.83;;;5.00;;
71091;SDS011;58751;50.708;7.134;2023-10-09T11:44:56;5.40;;;4.90;;
71091;SDS011;58751;50.708;7.134;2023-10-09T11:47:21;5.77;;;5.17;;
71091;SDS011;58751;50.708;7.134;2023-10-09T11:49:47;5.43;;;4.90;;
71091;SDS011;58751;50.708;7.134;2023-10-09T11:52:13;4.90;;;4.10;;
71091;SDS011;58751;50.708;7.134;2023-10-09T11:54:40;5.30;;;4.80;;
71091;SDS011;58751;50.708;7.134;2023-10-09T11:57:06;8.47;;;5.93;;
71091;SDS011;58751;50.708;7.134;2023-10-09T11:59:31;6.00;;;5.27;;
71091;SDS011;58751;50.708;7.134;2023-10-09T12:01:57;5.70;;;5.00;;
71091;SDS011;58751;50.708;7.134;2023-10-09T12:04:22;6.33;;;4.87;;
71091;SDS011;58751;50.708;7.134;2023-10-09T12:06:48;11.80;;;6.47;;
71091;SDS011;58751;50.708;7.134;2023-10-09T12:09:13;6.87;;;5.80;;
71091;SDS011;58751;50.708;7.134;2023-10-09T12:11:40;7.33;;;5.33;;
71091;SDS011;58751;50.708;7.134;2023-10-09T12:14:06;5.37;;;4.87;;
71091;SDS011;58751;50.708;7.134;2023-10-09T12:16:31;7.67;;;5.07;;
71091;SDS011;58751;50.708;7.134;2023-10-09T12:18:56;5.27;;;4.77;;
71091;SDS011;58751;50.708;7.134;2023-10-09T12:21:22;6.17;;;5.57;;
71091;SDS011;58751;50.708;7.134;2023-10-09T12:23:47;7.43;;;6.37;;
71091;SDS011;58751;50.708;7.134;2023-10-09T12:26:13;7.10;;;5.47;;
71091;SDS011;58751;50.708;7.134;2023-10-09T12:28:40;6.20;;;4.73;;
71091;SDS011;58751;50.708;7.134;2023-10-09T12:31:06;5.63;;;5.13;;
71091;SDS011;58751;50.708;7.134;2023-10-09T12:33:31;6.33;;;5.10;;
71091;SDS011;58751;50.708;7.134;2023-10-09T12:35:57;6.80;;;4.23;;
71091;SDS011;58751;50.708;7.134;2023-10-09T12:38:23;5.23;;;4.47;;
71091;SDS011;58751;50.708;7.134;2023-10-09T12:40:48;5.37;;;4.70;;
71091;SDS011;58751;50.708;7.134;2023-10-09T12:43:13;8.13;;;5.50;;
71091;SDS011;58751;50.708;7.134;2023-10-09T12:45:40;6.10;;;5.50;;
71091;SDS011;58751;50.708;7.134;2023-10-09T12:48:06;6.07;;;4.97;;
71091;SDS011;58751;50.708;7.134;2023-10-09T12:50:33;5.63;;;5.10;;
71091;SDS011;58751;50.708;7.134;2023-10-09T12:52:59;7.03;;;5.83;;
71091;SDS011;58751;50.708;7.134;2023-10-09T12:55:25;8.70;;;5.70;;
71091;SDS011;58751;50.708;7.134;2023-10-09T12:57:50;10.10;;;6.07;;
71091;SDS011;58751;50.708;7.134;2023-10-09T13:00:16;5.80;;;5.20;;
71091;SDS011;58751;50.708;7.134;2023-10-09T13:02:42;5.37;;;4.63;;
71091;SDS011;58751;50.708;7.134;2023-10-09T13:05:08;9.50;;;5.13;;
71091;SDS011;58751;50.708;7.134;2023-10-09T13:07:33;8.97;;;5.43;;
71091;SDS011;58751;50.708;7.134;2023-10-09T13:09:59;7.23;;;5.77;;
71091;SDS011;58751;50.708;7.134;2023-10-09T13:12:24;19.50;;;17.10;;
71091;SDS011;58751;50.708;7.134;2023-10-09T13:14:50;7.77;;;6.60;;
71091;SDS011;58751;50.708;7.134;2023-10-09T13:17:15;5.43;;;4.93;;
71091;SDS011;58751;50.708;7.134;2023-10-09T13:19:42;8.20;;;4.33;;
71091;SDS011;58751;50.708;7.134;2023-10-09T13:22:07;8.60;;;4.70;;
71091;SDS011;58751;50.708;7.134;2023-10-09T13:24:33;5.37;;;4.87;;
71091;SDS011;58751;50.708;7.134;2023-10-09T13:26:58;5.93;;;5.20;;
71091;SDS011;58751;50.708;7.134;2023-10-09T13:29:24;6.30;;;5.10;;
71091;SDS011;58751;50.708;7.134;2023-10-09T13:31:52;6.30;;;5.00;;
71091;SDS011;58751;50.708;7.134;2023-10-09T13:34:17;6.00;;;4.50;;
71091;SDS011;58751;50.708;7.134;2023-10-09T13:36:44;5.57;;;5.10;;
71091;SDS011;58751;50.708;7.134;2023-10-09T13:39:10;11.70;;;10.60;;
71091;SDS011;58751;50.708;7.134;2023-10-09T13:41:35;9.57;;;5.60;;
71091;SDS011;58751;50.708;7.134;2023-10-09T13:44:00;11.80;;;8.40;;
71091;SDS011;58751;50.708;7.134;2023-10-09T13:46:26;8.40;;;5.27;;
71091;SDS011;58751;50.708;7.134;2023-10-09T13:48:51;7.83;;;4.60;;
71091;SDS011;58751;50.708;7.134;2023-10-09T13:51:17;7.23;;;4.73;;
71091;SDS011;58751;50.708;7.134;2023-10-09T13:53:43;9.50;;;4.93;;
71091;SDS011;58751;50.708;7.134;2023-10-09T13:56:10;7.13;;;4.60;;
71091;SDS011;58751;50.708;7.134;2023-10-09T13:58:36;7.73;;;4.70;;
71091;SDS011;58751;50.708;7.134;2023-10-09T14:01:01;6.00;;;4.70;;
71091;SDS011;58751;50.708;7.134;2023-10-09T14:03:26;7.10;;;4.80;;
71091;SDS011;58751;50.708;7.134;2023-10-09T14:05:52;5.77;;;5.17;;
71091;SDS011;58751;50.708;7.134;2023-10-09T14:08:20;7.70;;;4.87;;
71091;SDS011;58751;50.708;7.134;2023-10-09T14:10:47;8.90;;;5.77;;
71091;SDS011;58751;50.708;7.134;2023-10-09T14:13:12;8.50;;;5.93;;
71091;SDS011;58751;50.708;7.134;2023-10-09T14:15:38;10.20;;;6.50;;
71091;SDS011;58751;50.708;7.134;2023-10-09T14:18:03;7.77;;;4.83;;
71091;SDS011;58751;50.708;7.134;2023-10-09T14:20:29;11.37;;;5.50;;
71091;SDS011;58751;50.708;7.134;2023-10-09T14:22:54;9.10;;;8.23;;
71091;SDS011;58751;50.708;7.134;2023-10-09T14:25:20;6.90;;;5.30;;
71091;SDS011;58751;50.708;7.134;2023-10-09T14:27:47;10.10;;;5.90;;
71091;SDS011;58751;50.708;7.134;2023-10-09T14:30:12;11.37;;;5.10;;
71091;SDS011;58751;50.708;7.134;2023-10-09T14:32:38;6.00;;;5.40;;
71091;SDS011;58751;50.708;7.134;2023-10-09T14:35:04;4.97;;;4.30;;
71091;SDS011;58751;50.708;7.134;2023-10-09T14:37:30;6.93;;;4.93;;
71091;SDS011;58751;50.708;7.134;2023-10-09T14:39:56;7.20;;;5.03;;